sensor_id;sensor_type;location;lat;lon;timestamp;temperature;humidity
38568;DHT22;24338;48.280;10.970;2022-12-10T00:01:19;0.70;99.90
38568;DHT22;24338;48.280;10.970;2022-12-10T00:03:46;0.70;99.90
38568;DHT22;24338;48.280;10.970;2022-12-10T00:06:18;0.70;99.90
38568;DHT22;24338;48.280;10.970;2022-12-10T00:08:45;0.60;99.90
38568;DHT22;24338;48.280;10.970;2022-12-10T00:11:14;0.70;99.90
38568;DHT22;24338;48.280;10.970;2022-12-10T00:13:43;0.60;99.90
38568;DHT22;24338;48.280;10.970;2022-12-10T00:16:12;0.70;99.90
38568;DHT22;24338;48.280;10.970;2022-12-10T00:18:40;0.60;99.90
38568;DHT22;24338;48.280;10.970;2022-12-10T00:21:10;0.60;99.90
38568;DHT22;24338;48.280;10.970;2022-12-10T00:23:37;0.60;99.90
38568;DHT22;24338;48.280;10.970;2022-12-10T00:26:07;0.60;99.90
38568;DHT22;24338;48.280;10.970;2022-12-10T00:28:35;0.60;99.90
38568;DHT22;24338;48.280;10.970;2022-12-10T00:31:10;0.60;99.90
38568;DHT22;24338;48.280;10.970;2022-12-10T00:33:38;0.60;99.90
38568;DHT22;24338;48.280;10.970;2022-12-10T00:36:15;0.60;99.90
38568;DHT22;24338;48.280;10.970;2022-12-10T00:38:42;0.60;99.90
38568;DHT22;24338;48.280;10.970;2022-12-10T00:41:11;0.60;99.90
38568;DHT22;24338;48.280;10.970;2022-12-10T00:43:39;0.60;99.90
38568;DHT22;24338;48.280;10.970;2022-12-10T00:46:06;0.60;99.90
38568;DHT22;24338;48.280;10.970;2022-12-10T00:48:34;0.60;99.90
38568;DHT22;24338;48.280;10.970;2022-12-10T00:51:05;0.60;99.90
38568;DHT22;24338;48.280;10.970;2022-12-10T00:53:33;0.60;99.90
38568;DHT22;24338;48.280;10.970;2022-12-10T00:56:01;0.60;99.90
38568;DHT22;24338;48.280;10.970;2022-12-10T00:58:31;0.60;99.90
38568;DHT22;24338;48.280;10.970;2022-12-10T01:01:20;0.60;99.90
38568;DHT22;24338;48.280;10.970;2022-12-10T01:03:53;0.60;99.90
38568;DHT22;24338;48.280;10.970;2022-12-10T01:06:26;0.60;99.90
38568;DHT22;24338;48.280;10.970;2022-12-10T01:08:57;0.50;99.90
38568;DHT22;24338;48.280;10.970;2022-12-10T01:11:28;0.50;99.90
38568;DHT22;24338;48.280;10.970;2022-12-10T01:13:56;0.50;99.90
38568;DHT22;24338;48.280;10.970;2022-12-10T01:16:24;0.50;99.90
38568;DHT22;24338;48.280;10.970;2022-12-10T01:18:55;0.50;99.90
38568;DHT22;24338;48.280;10.970;2022-12-10T01:21:23;0.50;99.90
38568;DHT22;24338;48.280;10.970;2022-12-10T01:23:52;0.40;99.90
38568;DHT22;24338;48.280;10.970;2022-12-10T01:26:21;0.50;99.90
38568;DHT22;24338;48.280;10.970;2022-12-10T01:28:49;0.50;99.90
38568;DHT22;24338;48.280;10.970;2022-12-10T01:31:30;0.40;99.90
38568;DHT22;24338;48.280;10.970;2022-12-10T01:33:58;0.50;99.90
38568;DHT22;24338;48.280;10.970;2022-12-10T01:36:38;0.50;99.90
38568;DHT22;24338;48.280;10.970;2022-12-10T01:39:07;0.50;99.90
38568;DHT22;24338;48.280;10.970;2022-12-10T01:41:36;0.50;99.90
38568;DHT22;24338;48.280;10.970;2022-12-10T01:46:40;0.40;99.90
38568;DHT22;24338;48.280;10.970;2022-12-10T01:49:09;0.50;99.90
38568;DHT22;24338;48.280;10.970;2022-12-10T01:51:39;0.40;99.90
38568;DHT22;24338;48.280;10.970;2022-12-10T01:54:11;0.40;99.90
38568;DHT22;24338;48.280;10.970;2022-12-10T01:56:41;0.40;99.90
38568;DHT22;24338;48.280;10.970;2022-12-10T01:59:10;0.40;99.90
38568;DHT22;24338;48.280;10.970;2022-12-10T02:07:00;0.50;99.90
38568;DHT22;24338;48.280;10.970;2022-12-10T02:09:43;0.40;99.90
38568;DHT22;24338;48.280;10.970;2022-12-10T02:15:00;0.40;99.90
38568;DHT22;24338;48.280;10.970;2022-12-10T02:17:35;0.50;99.90
38568;DHT22;24338;48.280;10.970;2022-12-10T02:22:53;0.50;99.90
38568;DHT22;24338;48.280;10.970;2022-12-10T02:25:26;0.40;99.90
38568;DHT22;24338;48.280;10.970;2022-12-10T02:28:10;0.40;99.90
38568;DHT22;24338;48.280;10.970;2022-12-10T02:30:39;0.40;99.90
38568;DHT22;24338;48.280;10.970;2022-12-10T02:33:07;0.40;99.90
38568;DHT22;24338;48.280;10.970;2022-12-10T02:35:37;0.40;99.90
38568;DHT22;24338;48.280;10.970;2022-12-10T02:38:13;0.40;99.90
38568;DHT22;24338;48.280;10.970;2022-12-10T02:40:46;0.40;99.90
38568;DHT22;24338;48.280;10.970;2022-12-10T02:43:15;0.40;99.90
38568;DHT22;24338;48.280;10.970;2022-12-10T02:45:43;0.40;99.90
38568;DHT22;24338;48.280;10.970;2022-12-10T02:48:12;0.40;99.90
38568;DHT22;24338;48.280;10.970;2022-12-10T02:50:40;0.40;99.90
38568;DHT22;24338;48.280;10.970;2022-12-10T02:53:07;0.40;99.90
38568;DHT22;24338;48.280;10.970;2022-12-10T02:55:57;0.40;99.90
38568;DHT22;24338;48.280;10.970;2022-12-10T03:01:10;0.40;99.90
38568;DHT22;24338;48.280;10.970;2022-12-10T03:03:52;0.40;99.90
38568;DHT22;24338;48.280;10.970;2022-12-10T03:06:52;0.40;99.90
38568;DHT22;24338;48.280;10.970;2022-12-10T03:09:51;0.40;99.90
38568;DHT22;24338;48.280;10.970;2022-12-10T03:12:25;0.30;99.90
38568;DHT22;24338;48.280;10.970;2022-12-10T03:14:58;0.40;99.90
38568;DHT22;24338;48.280;10.970;2022-12-10T03:17:29;0.40;99.90
38568;DHT22;24338;48.280;10.970;2022-12-10T03:19:57;0.40;99.90
38568;DHT22;24338;48.280;10.970;2022-12-10T03:22:26;0.40;99.90
38568;DHT22;24338;48.280;10.970;2022-12-10T03:24:55;0.40;99.90
38568;DHT22;24338;48.280;10.970;2022-12-10T03:27:24;0.40;99.90
38568;DHT22;24338;48.280;10.970;2022-12-10T03:29:54;0.40;99.90
38568;DHT22;24338;48.280;10.970;2022-12-10T03:32:24;0.40;99.90
38568;DHT22;24338;48.280;10.970;2022-12-10T03:34:54;0.40;99.90
38568;DHT22;24338;48.280;10.970;2022-12-10T03:37:23;0.40;99.90
38568;DHT22;24338;48.280;10.970;2022-12-10T03:39:51;0.40;99.90
38568;DHT22;24338;48.280;10.970;2022-12-10T03:42:18;0.40;99.90
38568;DHT22;24338;48.280;10.970;2022-12-10T03:44:45;0.40;99.90
38568;DHT22;24338;48.280;10.970;2022-12-10T03:47:13;0.40;99.90
38568;DHT22;24338;48.280;10.970;2022-12-10T03:49:42;0.40;99.90
38568;DHT22;24338;48.280;10.970;2022-12-10T03:52:10;0.40;99.90
38568;DHT22;24338;48.280;10.970;2022-12-10T03:54:37;0.40;99.90
38568;DHT22;24338;48.280;10.970;2022-12-10T03:57:04;0.40;99.90
38568;DHT22;24338;48.280;10.970;2022-12-10T03:59:31;0.40;99.90
38568;DHT22;24338;48.280;10.970;2022-12-10T04:01:58;0.40;99.90
38568;DHT22;24338;48.280;10.970;2022-12-10T04:04:25;0.40;99.90
38568;DHT22;24338;48.280;10.970;2022-12-10T04:06:51;0.30;99.90
38568;DHT22;24338;48.280;10.970;2022-12-10T04:09:19;0.30;99.90
38568;DHT22;24338;48.280;10.970;2022-12-10T04:11:46;0.40;99.90
38568;DHT22;24338;48.280;10.970;2022-12-10T04:14:13;0.40;99.90
38568;DHT22;24338;48.280;10.970;2022-12-10T04:16:59;0.40;99.90
38568;DHT22;24338;48.280;10.970;2022-12-10T04:19:26;0.30;99.90
38568;DHT22;24338;48.280;10.970;2022-12-10T04:21:53;0.40;99.90
38568;DHT22;24338;48.280;10.970;2022-12-10T04:24:39;0.40;99.90
38568;DHT22;24338;48.280;10.970;2022-12-10T04:27:29;0.30;99.90
38568;DHT22;24338;48.280;10.970;2022-12-10T04:29:58;0.30;99.90
38568;DHT22;24338;48.280;10.970;2022-12-10T04:32:28;0.30;99.90
38568;DHT22;24338;48.280;10.970;2022-12-10T04:34:55;0.30;99.90
38568;DHT22;24338;48.280;10.970;2022-12-10T04:37:23;0.30;99.90
38568;DHT22;24338;48.280;10.970;2022-12-10T04:39:50;0.30;99.90
38568;DHT22;24338;48.280;10.970;2022-12-10T04:42:18;0.30;99.90
38568;DHT22;24338;48.280;10.970;2022-12-10T04:44:45;0.30;99.90
38568;DHT22;24338;48.280;10.970;2022-12-10T04:47:13;0.30;99.90
38568;DHT22;24338;48.280;10.970;2022-12-10T04:49:39;0.30;99.90
38568;DHT22;24338;48.280;10.970;2022-12-10T04:52:08;0.40;99.90
38568;DHT22;24338;48.280;10.970;2022-12-10T04:54:36;0.40;99.90
38568;DHT22;24338;48.280;10.970;2022-12-10T04:57:06;0.40;99.90
38568;DHT22;24338;48.280;10.970;2022-12-10T04:59:33;0.40;99.90
38568;DHT22;24338;48.280;10.970;2022-12-10T05:02:00;0.40;99.90
38568;DHT22;24338;48.280;10.970;2022-12-10T05:04:26;0.40;99.90
38568;DHT22;24338;48.280;10.970;2022-12-10T05:06:53;0.40;99.90
38568;DHT22;24338;48.280;10.970;2022-12-10T05:09:20;0.40;99.90
38568;DHT22;24338;48.280;10.970;2022-12-10T05:11:47;0.40;99.90
38568;DHT22;24338;48.280;10.970;2022-12-10T05:14:15;0.50;99.90
38568;DHT22;24338;48.280;10.970;2022-12-10T05:16:42;0.40;99.90
38568;DHT22;24338;48.280;10.970;2022-12-10T05:19:10;0.40;99.90
38568;DHT22;24338;48.280;10.970;2022-12-10T05:21:37;0.40;99.90
38568;DHT22;24338;48.280;10.970;2022-12-10T05:24:22;0.30;99.90
38568;DHT22;24338;48.280;10.970;2022-12-10T05:26:49;0.40;99.90
38568;DHT22;24338;48.280;10.970;2022-12-10T05:29:18;0.40;99.90
38568;DHT22;24338;48.280;10.970;2022-12-10T05:31:46;0.40;99.90
38568;DHT22;24338;48.280;10.970;2022-12-10T05:34:13;0.40;99.90
38568;DHT22;24338;48.280;10.970;2022-12-10T05:36:40;0.40;99.90
38568;DHT22;24338;48.280;10.970;2022-12-10T05:39:07;0.40;99.90
38568;DHT22;24338;48.280;10.970;2022-12-10T05:41:36;0.40;99.90
38568;DHT22;24338;48.280;10.970;2022-12-10T05:44:04;0.40;99.90
38568;DHT22;24338;48.280;10.970;2022-12-10T05:46:33;0.40;99.90
38568;DHT22;24338;48.280;10.970;2022-12-10T05:49:01;0.40;99.90
38568;DHT22;24338;48.280;10.970;2022-12-10T05:51:30;0.40;99.90
38568;DHT22;24338;48.280;10.970;2022-12-10T05:53:59;0.40;99.90
38568;DHT22;24338;48.280;10.970;2022-12-10T05:56:28;0.40;99.90
38568;DHT22;24338;48.280;10.970;2022-12-10T05:58:58;0.40;99.90
38568;DHT22;24338;48.280;10.970;2022-12-10T06:01:28;0.40;99.90
38568;DHT22;24338;48.280;10.970;2022-12-10T06:03:58;0.40;99.90
38568;DHT22;24338;48.280;10.970;2022-12-10T06:06:30;0.40;99.90
38568;DHT22;24338;48.280;10.970;2022-12-10T06:08:57;0.40;99.90
38568;DHT22;24338;48.280;10.970;2022-12-10T06:11:26;0.40;99.90
38568;DHT22;24338;48.280;10.970;2022-12-10T06:13:53;0.30;99.90
38568;DHT22;24338;48.280;10.970;2022-12-10T06:16:23;0.30;99.90
38568;DHT22;24338;48.280;10.970;2022-12-10T06:18:50;0.40;99.90
38568;DHT22;24338;48.280;10.970;2022-12-10T06:21:18;0.30;99.90
38568;DHT22;24338;48.280;10.970;2022-12-10T06:23:46;0.40;99.90
38568;DHT22;24338;48.280;10.970;2022-12-10T06:26:19;0.30;99.90
38568;DHT22;24338;48.280;10.970;2022-12-10T06:28:47;0.30;99.90
38568;DHT22;24338;48.280;10.970;2022-12-10T06:31:15;0.30;99.90
38568;DHT22;24338;48.280;10.970;2022-12-10T06:33:42;0.40;99.90
38568;DHT22;24338;48.280;10.970;2022-12-10T06:36:11;0.40;99.90
38568;DHT22;24338;48.280;10.970;2022-12-10T06:38:38;0.40;99.90
38568;DHT22;24338;48.280;10.970;2022-12-10T06:41:10;0.40;99.90
38568;DHT22;24338;48.280;10.970;2022-12-10T06:43:37;0.30;99.90
38568;DHT22;24338;48.280;10.970;2022-12-10T06:46:13;0.40;99.90
38568;DHT22;24338;48.280;10.970;2022-12-10T06:48:41;0.40;99.90
38568;DHT22;24338;48.280;10.970;2022-12-10T06:51:09;0.40;99.90
38568;DHT22;24338;48.280;10.970;2022-12-10T06:53:37;0.40;99.90
38568;DHT22;24338;48.280;10.970;2022-12-10T06:56:05;0.40;99.90
38568;DHT22;24338;48.280;10.970;2022-12-10T06:58:33;0.30;99.90
38568;DHT22;24338;48.280;10.970;2022-12-10T07:01:13;0.40;99.90
38568;DHT22;24338;48.280;10.970;2022-12-10T07:03:40;0.40;99.90
38568;DHT22;24338;48.280;10.970;2022-12-10T07:06:08;0.30;99.90
38568;DHT22;24338;48.280;10.970;2022-12-10T07:08:36;0.40;99.90
38568;DHT22;24338;48.280;10.970;2022-12-10T07:11:08;0.40;99.90
38568;DHT22;24338;48.280;10.970;2022-12-10T07:13:35;0.40;99.90
38568;DHT22;24338;48.280;10.970;2022-12-10T07:16:11;0.40;99.90
38568;DHT22;24338;48.280;10.970;2022-12-10T07:18:38;0.40;99.90
38568;DHT22;24338;48.280;10.970;2022-12-10T07:23:47;0.40;99.90
38568;DHT22;24338;48.280;10.970;2022-12-10T07:26:14;0.40;99.90
38568;DHT22;24338;48.280;10.970;2022-12-10T07:28:42;0.40;99.90
38568;DHT22;24338;48.280;10.970;2022-12-10T07:31:19;0.30;99.90
38568;DHT22;24338;48.280;10.970;2022-12-10T07:33:46;0.40;99.90
38568;DHT22;24338;48.280;10.970;2022-12-10T07:36:13;0.40;99.90
38568;DHT22;24338;48.280;10.970;2022-12-10T07:38:41;0.40;99.90
38568;DHT22;24338;48.280;10.970;2022-12-10T07:41:12;0.40;99.90
38568;DHT22;24338;48.280;10.970;2022-12-10T07:43:40;0.40;99.90
38568;DHT22;24338;48.280;10.970;2022-12-10T07:46:10;0.40;99.90
38568;DHT22;24338;48.280;10.970;2022-12-10T07:48:39;0.40;99.90
38568;DHT22;24338;48.280;10.970;2022-12-10T07:51:07;0.40;99.90
38568;DHT22;24338;48.280;10.970;2022-12-10T07:53:34;0.40;99.90
38568;DHT22;24338;48.280;10.970;2022-12-10T07:56:02;0.40;99.90
38568;DHT22;24338;48.280;10.970;2022-12-10T07:58:29;0.50;99.90
38568;DHT22;24338;48.280;10.970;2022-12-10T08:00:56;0.50;99.90
38568;DHT22;24338;48.280;10.970;2022-12-10T08:03:23;0.50;99.90
38568;DHT22;24338;48.280;10.970;2022-12-10T08:06:12;0.50;99.90
38568;DHT22;24338;48.280;10.970;2022-12-10T08:08:40;0.40;99.90
38568;DHT22;24338;48.280;10.970;2022-12-10T08:11:08;0.40;99.90
38568;DHT22;24338;48.280;10.970;2022-12-10T08:13:35;0.40;99.90
38568;DHT22;24338;48.280;10.970;2022-12-10T08:16:03;0.50;99.90
38568;DHT22;24338;48.280;10.970;2022-12-10T08:18:32;0.50;99.90
38568;DHT22;24338;48.280;10.970;2022-12-10T08:21:06;0.50;99.90
38568;DHT22;24338;48.280;10.970;2022-12-10T08:23:34;0.50;99.90
38568;DHT22;24338;48.280;10.970;2022-12-10T08:26:09;0.50;99.90
38568;DHT22;24338;48.280;10.970;2022-12-10T08:28:36;0.50;99.90
38568;DHT22;24338;48.280;10.970;2022-12-10T08:31:04;0.50;99.90
38568;DHT22;24338;48.280;10.970;2022-12-10T08:33:34;0.50;99.90
38568;DHT22;24338;48.280;10.970;2022-12-10T08:36:04;0.50;99.90
38568;DHT22;24338;48.280;10.970;2022-12-10T08:38:32;0.50;99.90
38568;DHT22;24338;48.280;10.970;2022-12-10T08:40:59;0.50;99.90
38568;DHT22;24338;48.280;10.970;2022-12-10T08:43:31;0.40;99.90
38568;DHT22;24338;48.280;10.970;2022-12-10T08:45:58;0.40;99.90
38568;DHT22;24338;48.280;10.970;2022-12-10T08:48:25;0.50;99.90
38568;DHT22;24338;48.280;10.970;2022-12-10T08:50:52;0.50;99.90
38568;DHT22;24338;48.280;10.970;2022-12-10T08:53:19;0.50;99.90
38568;DHT22;24338;48.280;10.970;2022-12-10T08:55:49;0.50;99.90
38568;DHT22;24338;48.280;10.970;2022-12-10T08:58:17;0.50;99.90
38568;DHT22;24338;48.280;10.970;2022-12-10T09:00:44;0.50;99.90
38568;DHT22;24338;48.280;10.970;2022-12-10T09:03:11;0.50;99.90
38568;DHT22;24338;48.280;10.970;2022-12-10T09:05:38;0.50;99.90
38568;DHT22;24338;48.280;10.970;2022-12-10T09:08:05;0.50;99.90
38568;DHT22;24338;48.280;10.970;2022-12-10T09:10:32;0.60;99.90
38568;DHT22;24338;48.280;10.970;2022-12-10T09:12:59;0.50;99.90
38568;DHT22;24338;48.280;10.970;2022-12-10T09:15:29;0.50;99.90
38568;DHT22;24338;48.280;10.970;2022-12-10T09:17:56;0.50;99.90
38568;DHT22;24338;48.280;10.970;2022-12-10T09:20:23;0.60;99.90
38568;DHT22;24338;48.280;10.970;2022-12-10T09:22:50;0.60;99.90
38568;DHT22;24338;48.280;10.970;2022-12-10T09:25:17;0.60;99.90
38568;DHT22;24338;48.280;10.970;2022-12-10T09:27:44;0.60;99.90
38568;DHT22;24338;48.280;10.970;2022-12-10T09:30:11;0.60;99.90
38568;DHT22;24338;48.280;10.970;2022-12-10T09:32:38;0.70;99.90
38568;DHT22;24338;48.280;10.970;2022-12-10T09:35:05;0.70;99.90
38568;DHT22;24338;48.280;10.970;2022-12-10T09:37:33;0.70;99.90
38568;DHT22;24338;48.280;10.970;2022-12-10T09:40:00;0.70;99.90
38568;DHT22;24338;48.280;10.970;2022-12-10T09:53:16;0.70;99.90
38568;DHT22;24338;48.280;10.970;2022-12-10T09:55:46;0.70;99.90
38568;DHT22;24338;48.280;10.970;2022-12-10T09:58:23;0.80;99.90
38568;DHT22;24338;48.280;10.970;2022-12-10T10:01:01;0.70;99.90
38568;DHT22;24338;48.280;10.970;2022-12-10T10:03:38;0.80;99.90
38568;DHT22;24338;48.280;10.970;2022-12-10T10:06:05;0.80;99.90
38568;DHT22;24338;48.280;10.970;2022-12-10T10:08:47;0.80;99.90
38568;DHT22;24338;48.280;10.970;2022-12-10T10:11:22;0.80;99.90
38568;DHT22;24338;48.280;10.970;2022-12-10T10:13:53;0.80;99.90
38568;DHT22;24338;48.280;10.970;2022-12-10T10:16:39;0.80;99.90
38568;DHT22;24338;48.280;10.970;2022-12-10T10:19:23;0.80;99.90
38568;DHT22;24338;48.280;10.970;2022-12-10T10:21:51;0.90;99.90
38568;DHT22;24338;48.280;10.970;2022-12-10T10:24:24;0.90;99.90
38568;DHT22;24338;48.280;10.970;2022-12-10T10:26:57;0.90;99.90
38568;DHT22;24338;48.280;10.970;2022-12-10T10:29:24;0.80;99.90
38568;DHT22;24338;48.280;10.970;2022-12-10T10:34:46;0.90;99.90
38568;DHT22;24338;48.280;10.970;2022-12-10T10:37:45;0.90;99.90
38568;DHT22;24338;48.280;10.970;2022-12-10T10:40:25;0.90;99.90
38568;DHT22;24338;48.280;10.970;2022-12-10T10:42:55;0.90;99.90
38568;DHT22;24338;48.280;10.970;2022-12-10T10:48:15;0.90;99.90
38568;DHT22;24338;48.280;10.970;2022-12-10T10:51:05;0.90;99.90
38568;DHT22;24338;48.280;10.970;2022-12-10T10:53:39;0.90;99.90
38568;DHT22;24338;48.280;10.970;2022-12-10T10:59:04;0.90;99.90
38568;DHT22;24338;48.280;10.970;2022-12-10T11:01:52;0.80;99.90
38568;DHT22;24338;48.280;10.970;2022-12-10T11:07:01;0.80;99.90
38568;DHT22;24338;48.280;10.970;2022-12-10T11:09:31;0.80;99.90
38568;DHT22;24338;48.280;10.970;2022-12-10T11:14:55;0.80;99.90
38568;DHT22;24338;48.280;10.970;2022-12-10T11:17:24;0.80;99.90
38568;DHT22;24338;48.280;10.970;2022-12-10T11:22:30;0.70;99.90
38568;DHT22;24338;48.280;10.970;2022-12-10T11:24:58;0.70;99.90
38568;DHT22;24338;48.280;10.970;2022-12-10T11:30:47;0.60;99.90
38568;DHT22;24338;48.280;10.970;2022-12-10T11:38:50;0.60;99.90
38568;DHT22;24338;48.280;10.970;2022-12-10T11:49:42;0.80;99.90
38568;DHT22;24338;48.280;10.970;2022-12-10T11:52:16;0.90;99.90
38568;DHT22;24338;48.280;10.970;2022-12-10T11:57:49;0.80;99.90
38568;DHT22;24338;48.280;10.970;2022-12-10T12:00:23;0.70;99.90
38568;DHT22;24338;48.280;10.970;2022-12-10T12:06:02;0.60;99.90
38568;DHT22;24338;48.280;10.970;2022-12-10T12:14:14;0.60;99.90
38568;DHT22;24338;48.280;10.970;2022-12-10T12:19:43;0.70;99.90
38568;DHT22;24338;48.280;10.970;2022-12-10T12:24:48;0.60;99.90
38568;DHT22;24338;48.280;10.970;2022-12-10T12:32:54;0.60;99.90
38568;DHT22;24338;48.280;10.970;2022-12-10T12:35:51;0.60;99.90
38568;DHT22;24338;48.280;10.970;2022-12-10T12:46:04;0.50;99.90
38568;DHT22;24338;48.280;10.970;2022-12-10T12:51:21;0.50;99.90
38568;DHT22;24338;48.280;10.970;2022-12-10T12:53:50;0.40;99.90
38568;DHT22;24338;48.280;10.970;2022-12-10T13:04:39;0.50;99.90
38568;DHT22;24338;48.280;10.970;2022-12-10T13:12:46;0.50;99.90
38568;DHT22;24338;48.280;10.970;2022-12-10T13:28:31;0.50;99.90
38568;DHT22;24338;48.280;10.970;2022-12-10T13:36:36;0.40;99.90
38568;DHT22;24338;48.280;10.970;2022-12-10T13:47:26;0.40;99.90
38568;DHT22;24338;48.280;10.970;2022-12-10T14:00:58;0.30;99.90
38568;DHT22;24338;48.280;10.970;2022-12-10T14:06:32;0.20;99.90
38568;DHT22;24338;48.280;10.970;2022-12-10T14:09:31;0.20;99.90
38568;DHT22;24338;48.280;10.970;2022-12-10T14:12:46;0.20;99.90
38568;DHT22;24338;48.280;10.970;2022-12-10T14:15:00;0.10;99.90
38568;DHT22;24338;48.280;10.970;2022-12-10T14:17:39;0.10;99.90
38568;DHT22;24338;48.280;10.970;2022-12-10T14:20:13;0.10;99.90
38568;DHT22;24338;48.280;10.970;2022-12-10T14:22:52;0.10;99.90
38568;DHT22;24338;48.280;10.970;2022-12-10T14:25:22;0.00;99.90
38568;DHT22;24338;48.280;10.970;2022-12-10T14:27:50;0.00;99.90
38568;DHT22;24338;48.280;10.970;2022-12-10T14:30:20;0.00;99.90
38568;DHT22;24338;48.280;10.970;2022-12-10T14:32:47;0.00;99.90
38568;DHT22;24338;48.280;10.970;2022-12-10T14:35:27;0.00;99.90
38568;DHT22;24338;48.280;10.970;2022-12-10T14:37:57;0.00;99.90
38568;DHT22;24338;48.280;10.970;2022-12-10T14:40:39;0.00;99.90
38568;DHT22;24338;48.280;10.970;2022-12-10T14:43:21;0.00;99.90
38568;DHT22;24338;48.280;10.970;2022-12-10T14:45:54;0.00;99.90
38568;DHT22;24338;48.280;10.970;2022-12-10T14:48:23;0.00;99.90
38568;DHT22;24338;48.280;10.970;2022-12-10T14:50:50;0.00;99.90
38568;DHT22;24338;48.280;10.970;2022-12-10T14:53:23;0.00;99.90
38568;DHT22;24338;48.280;10.970;2022-12-10T14:56:04;0.00;99.90
38568;DHT22;24338;48.280;10.970;2022-12-10T14:58:44;0.00;99.90
38568;DHT22;24338;48.280;10.970;2022-12-10T15:01:17;0.00;99.90
38568;DHT22;24338;48.280;10.970;2022-12-10T15:03:48;0.00;99.90
38568;DHT22;24338;48.280;10.970;2022-12-10T15:06:19;-0.10;99.90
38568;DHT22;24338;48.280;10.970;2022-12-10T15:08:47;-0.10;99.90
38568;DHT22;24338;48.280;10.970;2022-12-10T15:11:17;-0.10;99.90
38568;DHT22;24338;48.280;10.970;2022-12-10T15:13:49;-0.10;99.90
38568;DHT22;24338;48.280;10.970;2022-12-10T15:16:21;-0.10;99.90
38568;DHT22;24338;48.280;10.970;2022-12-10T15:18:54;-0.10;99.90
38568;DHT22;24338;48.280;10.970;2022-12-10T15:21:24;-0.10;99.90
38568;DHT22;24338;48.280;10.970;2022-12-10T15:24:16;-0.10;99.90
38568;DHT22;24338;48.280;10.970;2022-12-10T15:26:46;-0.10;99.90
38568;DHT22;24338;48.280;10.970;2022-12-10T15:31:56;-0.10;99.90
38568;DHT22;24338;48.280;10.970;2022-12-10T15:34:26;-0.10;99.90
38568;DHT22;24338;48.280;10.970;2022-12-10T15:37:01;-0.10;99.90
38568;DHT22;24338;48.280;10.970;2022-12-10T15:39:37;-0.10;99.90
38568;DHT22;24338;48.280;10.970;2022-12-10T15:42:06;-0.10;99.90
38568;DHT22;24338;48.280;10.970;2022-12-10T15:44:36;-0.10;99.90
38568;DHT22;24338;48.280;10.970;2022-12-10T15:47:23;-0.10;99.90
38568;DHT22;24338;48.280;10.970;2022-12-10T15:49:53;-0.20;99.90
38568;DHT22;24338;48.280;10.970;2022-12-10T15:52:25;-0.30;99.90
38568;DHT22;24338;48.280;10.970;2022-12-10T15:54:54;-0.30;99.90
38568;DHT22;24338;48.280;10.970;2022-12-10T15:57:33;-0.40;99.90
38568;DHT22;24338;48.280;10.970;2022-12-10T16:00:06;-0.40;99.90
38568;DHT22;24338;48.280;10.970;2022-12-10T16:02:41;-0.40;99.90
38568;DHT22;24338;48.280;10.970;2022-12-10T16:05:18;-0.50;99.90
38568;DHT22;24338;48.280;10.970;2022-12-10T16:07:46;-0.50;99.90
38568;DHT22;24338;48.280;10.970;2022-12-10T16:10:16;-0.50;99.90
38568;DHT22;24338;48.280;10.970;2022-12-10T16:12:46;-0.50;99.90
38568;DHT22;24338;48.280;10.970;2022-12-10T16:15:19;-0.50;99.90
38568;DHT22;24338;48.280;10.970;2022-12-10T16:17:47;-0.50;99.90
38568;DHT22;24338;48.280;10.970;2022-12-10T16:22:41;-0.40;99.90
38568;DHT22;24338;48.280;10.970;2022-12-10T16:25:08;-0.50;99.90
38568;DHT22;24338;48.280;10.970;2022-12-10T16:27:35;-0.40;99.90
38568;DHT22;24338;48.280;10.970;2022-12-10T16:30:26;-0.40;99.90
38568;DHT22;24338;48.280;10.970;2022-12-10T16:33:02;-0.40;99.90
38568;DHT22;24338;48.280;10.970;2022-12-10T16:35:29;-0.40;99.90
38568;DHT22;24338;48.280;10.970;2022-12-10T16:37:56;-0.40;99.90
38568;DHT22;24338;48.280;10.970;2022-12-10T16:40:26;-0.40;99.90
38568;DHT22;24338;48.280;10.970;2022-12-10T16:42:54;-0.40;99.90
38568;DHT22;24338;48.280;10.970;2022-12-10T16:45:36;-0.40;99.90
38568;DHT22;24338;48.280;10.970;2022-12-10T16:48:05;-0.40;99.90
38568;DHT22;24338;48.280;10.970;2022-12-10T16:50:32;-0.50;99.90
38568;DHT22;24338;48.280;10.970;2022-12-10T16:53:14;-0.40;99.90
38568;DHT22;24338;48.280;10.970;2022-12-10T16:55:41;-0.40;99.90
38568;DHT22;24338;48.280;10.970;2022-12-10T16:58:12;-0.50;99.90
38568;DHT22;24338;48.280;10.970;2022-12-10T17:00:47;-0.50;99.90
38568;DHT22;24338;48.280;10.970;2022-12-10T17:03:23;-0.40;99.90
38568;DHT22;24338;48.280;10.970;2022-12-10T17:05:56;-0.50;99.90
38568;DHT22;24338;48.280;10.970;2022-12-10T17:08:24;-0.40;99.90
38568;DHT22;24338;48.280;10.970;2022-12-10T17:10:53;-0.40;99.90
38568;DHT22;24338;48.280;10.970;2022-12-10T17:13:39;-0.40;99.90
38568;DHT22;24338;48.280;10.970;2022-12-10T17:16:15;-0.30;99.90
38568;DHT22;24338;48.280;10.970;2022-12-10T17:18:44;-0.40;99.90
38568;DHT22;24338;48.280;10.970;2022-12-10T17:21:10;-0.40;99.90
38568;DHT22;24338;48.280;10.970;2022-12-10T17:23:37;-0.40;99.90
38568;DHT22;24338;48.280;10.970;2022-12-10T17:26:04;-0.40;99.90
38568;DHT22;24338;48.280;10.970;2022-12-10T17:28:32;-0.40;99.90
38568;DHT22;24338;48.280;10.970;2022-12-10T17:30:59;-0.40;99.90
38568;DHT22;24338;48.280;10.970;2022-12-10T17:33:25;-0.40;99.90
38568;DHT22;24338;48.280;10.970;2022-12-10T17:35:52;-0.40;99.90
38568;DHT22;24338;48.280;10.970;2022-12-10T17:38:24;-0.40;99.90
38568;DHT22;24338;48.280;10.970;2022-12-10T17:40:52;-0.40;99.90
38568;DHT22;24338;48.280;10.970;2022-12-10T17:43:20;-0.40;99.90
38568;DHT22;24338;48.280;10.970;2022-12-10T17:45:47;-0.40;99.90
38568;DHT22;24338;48.280;10.970;2022-12-10T17:48:15;-0.40;99.90
38568;DHT22;24338;48.280;10.970;2022-12-10T17:50:44;-0.50;99.90
38568;DHT22;24338;48.280;10.970;2022-12-10T17:53:12;-0.50;99.90
38568;DHT22;24338;48.280;10.970;2022-12-10T17:55:48;-0.50;99.90
38568;DHT22;24338;48.280;10.970;2022-12-10T17:58:16;-0.40;99.90
38568;DHT22;24338;48.280;10.970;2022-12-10T18:00:46;-0.40;99.90
38568;DHT22;24338;48.280;10.970;2022-12-10T18:03:13;-0.40;99.90
38568;DHT22;24338;48.280;10.970;2022-12-10T18:05:40;-0.40;99.90
38568;DHT22;24338;48.280;10.970;2022-12-10T18:08:11;-0.40;99.90
38568;DHT22;24338;48.280;10.970;2022-12-10T18:10:38;-0.40;99.90
38568;DHT22;24338;48.280;10.970;2022-12-10T18:13:05;-0.40;99.90
38568;DHT22;24338;48.280;10.970;2022-12-10T18:15:32;-0.40;99.90
38568;DHT22;24338;48.280;10.970;2022-12-10T18:17:59;-0.50;99.90
38568;DHT22;24338;48.280;10.970;2022-12-10T18:20:32;-0.50;99.90
38568;DHT22;24338;48.280;10.970;2022-12-10T18:23:00;-0.50;99.90
38568;DHT22;24338;48.280;10.970;2022-12-10T18:25:29;-0.50;99.90
38568;DHT22;24338;48.280;10.970;2022-12-10T18:28:06;-0.50;99.90